createdAt,value
2018-10-19T00:02:08.868Z,45.34
2018-10-19T00:04:38.434Z,45.71
2018-10-19T00:07:09.184Z,45.12
2018-10-19T00:09:39.615Z,45.51
2018-10-19T00:12:10.148Z,44.97
2018-10-19T00:14:41.073Z,45.22
2018-10-19T00:17:12.827Z,45.90
2018-10-19T00:19:42.534Z,45.28
2018-10-19T00:22:14.037Z,45.64
2018-10-19T00:24:44.255Z,46.38
2018-10-19T00:27:14.630Z,45.67
2018-10-19T00:29:44.887Z,46.10
2018-10-19T00:32:17.001Z,45.87
2018-10-19T00:34:46.601Z,46.73
2018-10-19T00:37:16.504Z,45.88
2018-10-19T00:39:46.242Z,45.70
2018-10-19T00:42:17.551Z,46.69
2018-10-19T00:44:48.224Z,46.78
2018-10-19T00:47:17.872Z,46.52
2018-10-19T00:49:47.415Z,46.87
2018-10-19T00:52:17.429Z,46.94
2018-10-19T00:54:47.863Z,46.68
2018-10-19T00:57:17.942Z,46.99
2018-10-19T00:59:49.354Z,46.89
2018-10-19T01:02:18.878Z,46.53
2018-10-19T01:04:49.967Z,46.68
2018-10-19T01:07:23.439Z,47.04
2018-10-19T01:09:54.554Z,46.53
2018-10-19T01:12:28.718Z,47.30
2018-10-19T01:14:58.502Z,47.45
2018-10-19T01:17:29.439Z,47.27
2018-10-19T01:20:05.963Z,47.12
2018-10-19T01:22:38.206Z,47.32
2018-10-19T01:25:11.692Z,47.09
2018-10-19T01:27:41.342Z,46.87
2018-10-19T01:30:14.552Z,46.53
2018-10-19T01:32:45.602Z,46.97
2018-10-19T01:35:15.603Z,46.42
2018-10-19T01:37:49.144Z,46.58
2018-10-19T01:40:19.464Z,47.06
2018-10-19T01:42:50.745Z,47.03
2018-10-19T01:45:22.929Z,46.98
2018-10-19T01:47:53.623Z,46.52
2018-10-19T01:50:25.988Z,46.51
2018-10-19T01:52:59.426Z,46.47
2018-10-19T01:55:30.489Z,46.26
2018-10-19T01:58:00.871Z,46.68
2018-10-19T02:00:34.744Z,46.01
2018-10-19T02:03:06.100Z,46.82
2018-10-19T02:05:35.646Z,46.54
2018-10-19T02:08:05.932Z,46.19
2018-10-19T02:10:36.325Z,45.44
2018-10-19T02:13:06.605Z,45.71
2018-10-19T02:15:38.348Z,45.77
2018-10-19T02:18:09.735Z,45.75
2018-10-19T02:20:46.619Z,45.48
2018-10-19T02:23:17.522Z,46.07
2018-10-19T02:25:48.442Z,45.97
2018-10-19T02:28:19.615Z,45.52
2018-10-19T02:30:49.146Z,45.93
2018-10-19T02:33:21.097Z,45.91
2018-10-19T02:38:27.701Z,45.01
2018-10-19T02:40:58.263Z,45.89
2018-10-19T02:43:31.926Z,45.78
2018-10-19T02:46:03.000Z,45.96
2018-10-19T02:48:34.728Z,45.08
2018-10-19T02:51:06.426Z,44.97
2018-10-19T02:53:37.166Z,44.83
2018-10-19T02:56:07.420Z,45.33
2018-10-19T02:58:39.412Z,45.46
2018-10-19T03:01:09.031Z,44.85
2018-10-19T03:03:39.800Z,44.89
2018-10-19T03:06:09.358Z,45.56
2018-10-19T03:08:41.848Z,44.70
2018-10-19T03:11:12.125Z,44.24
2018-10-19T03:13:42.176Z,44.43
2018-10-19T03:16:13.208Z,44.42
2018-10-19T03:18:43.736Z,45.00
2018-10-19T03:21:14.762Z,44.52
2018-10-19T03:23:47.031Z,45.05
2018-10-19T03:26:17.551Z,44.68
2018-10-19T03:28:47.129Z,44.84
2018-10-19T03:31:17.343Z,44.31
2018-10-19T03:33:47.837Z,43.42
2018-10-19T03:36:18.965Z,43.51
2018-10-19T03:38:48.637Z,43.28
2018-10-19T03:41:19.709Z,44.44
2018-10-19T03:43:49.250Z,44.54
2018-10-19T03:46:19.700Z,44.06
2018-10-19T03:48:52.033Z,44.42
2018-10-19T03:51:21.956Z,43.93
2018-10-19T03:53:51.977Z,43.62
2018-10-19T03:56:22.229Z,43.69
2018-10-19T03:58:52.591Z,43.69
2018-10-19T04:01:23.035Z,43.35
2018-10-19T04:03:52.603Z,43.56
2018-10-19T04:06:22.469Z,43.88
2018-10-19T04:08:53.147Z,44.33
2018-10-19T04:11:23.009Z,44.60
2018-10-19T04:13:52.594Z,44.01
2018-10-19T04:16:22.796Z,43.89
2018-10-19T04:18:52.498Z,44.88
2018-10-19T04:21:23.157Z,44.97
2018-10-19T04:23:55.236Z,44.21
2018-10-19T04:26:25.009Z,44.66
2018-10-19T04:28:54.631Z,43.64
2018-10-19T04:31:25.469Z,44.16
2018-10-19T04:33:56.881Z,44.14
2018-10-19T04:36:27.175Z,43.89
2018-10-19T04:38:57.139Z,43.78
2018-10-19T04:41:28.007Z,44.44
2018-10-19T04:43:58.788Z,43.94
2018-10-19T04:46:28.725Z,44.36
2018-10-19T04:48:58.905Z,44.20
2018-10-19T04:51:30.311Z,43.80
2018-10-19T04:54:01.626Z,44.15
2018-10-19T04:56:31.198Z,44.32
2018-10-19T04:59:00.834Z,43.92
2018-10-19T05:01:31.005Z,44.11
2018-10-19T05:04:00.697Z,44.55
2018-10-19T05:06:31.209Z,43.67
2018-10-19T05:09:00.805Z,43.37
2018-10-19T05:11:31.047Z,44.17
2018-10-19T05:14:01.368Z,44.14
2018-10-19T05:16:33.041Z,43.67
2018-10-19T05:19:02.634Z,44.14
2018-10-19T05:21:32.303Z,44.72
2018-10-19T05:24:02.000Z,44.62
2018-10-19T05:26:32.017Z,44.67
2018-10-19T05:29:02.621Z,44.82
2018-10-19T05:31:34.930Z,44.58
2018-10-19T05:34:05.379Z,44.50
2018-10-19T05:36:35.025Z,45.02
2018-10-19T05:39:07.997Z,45.00
2018-10-19T05:41:37.652Z,45.45
2018-10-19T05:44:07.506Z,46.14
2018-10-19T05:46:37.161Z,46.33
2018-10-19T05:49:07.522Z,46.50
2018-10-19T05:51:37.128Z,46.64
2018-10-19T05:54:07.006Z,46.60
2018-10-19T05:56:37.465Z,46.36
2018-10-19T05:59:07.223Z,47.52
2018-10-19T06:01:37.871Z,47.43
2018-10-19T06:04:07.835Z,47.16
2018-10-19T06:06:39.667Z,47.03
2018-10-19T06:09:10.382Z,47.29
2018-10-19T06:11:40.877Z,46.85
2018-10-19T06:14:11.769Z,47.37
2018-10-19T06:16:41.731Z,47.23
2018-10-19T06:19:11.824Z,47.38
2018-10-19T06:21:42.420Z,46.99
2018-10-19T06:24:13.422Z,47.00
2018-10-19T06:26:43.887Z,47.34
2018-10-19T06:29:19.412Z,46.87
2018-10-19T06:31:49.349Z,46.66
2018-10-19T06:34:19.657Z,46.84
2018-10-19T06:36:49.318Z,47.21
2018-10-19T06:39:21.027Z,46.14
2018-10-19T06:41:51.345Z,45.30
2018-10-19T06:44:21.041Z,46.01
2018-10-19T06:46:51.531Z,46.05
2018-10-19T06:49:22.504Z,45.00
2018-10-19T06:51:54.598Z,45.45
2018-10-19T06:54:27.411Z,44.93
2018-10-19T06:56:57.079Z,44.56
2018-10-19T06:59:27.348Z,44.93
2018-10-19T07:01:57.137Z,44.81
2018-10-19T07:04:27.074Z,45.21
2018-10-19T07:06:57.223Z,45.12
2018-10-19T07:09:32.107Z,45.03
2018-10-19T07:12:03.815Z,45.80
2018-10-19T07:14:33.583Z,45.62
2018-10-19T07:17:03.421Z,45.11
2018-10-19T07:19:34.766Z,45.28
2018-10-19T07:22:05.348Z,44.93
2018-10-19T07:24:36.632Z,43.94
2018-10-19T07:27:07.419Z,43.29
2018-10-19T07:29:37.197Z,43.74
2018-10-19T07:32:09.321Z,43.17
2018-10-19T07:34:39.240Z,43.45
2018-10-19T07:37:09.378Z,43.71
2018-10-19T07:39:40.745Z,42.89
2018-10-19T07:42:13.941Z,43.70
2018-10-19T07:44:45.144Z,43.02
2018-10-19T07:47:15.732Z,42.70
2018-10-19T07:49:45.418Z,43.01
2018-10-19T07:52:19.566Z,44.19
2018-10-19T07:54:50.020Z,43.16
2018-10-19T07:57:19.787Z,42.81
2018-10-19T07:59:49.511Z,42.85
2018-10-19T08:02:20.137Z,41.45
2018-10-19T08:04:50.378Z,42.20
2018-10-19T08:07:21.074Z,42.05
2018-10-19T08:09:54.417Z,42.13
2018-10-19T08:12:25.066Z,41.80
2018-10-19T08:14:56.134Z,42.53
2018-10-19T08:17:26.872Z,41.66
2018-10-19T08:19:56.488Z,41.78
2018-10-19T08:22:29.080Z,41.34
2018-10-19T08:24:59.960Z,40.57
2018-10-19T08:27:30.978Z,40.58
2018-10-19T08:30:03.588Z,39.94
2018-10-19T08:32:35.089Z,40.18
2018-10-19T08:35:05.653Z,39.88
2018-10-19T08:37:36.984Z,39.47
2018-10-19T08:40:08.362Z,38.82
2018-10-19T08:42:39.636Z,39.01
2018-10-19T08:45:10.222Z,39.44
2018-10-19T08:47:43.705Z,39.07
2018-10-19T08:50:14.389Z,38.66
2018-10-19T08:52:50.679Z,38.17
2018-10-19T08:55:20.432Z,37.82
2018-10-19T08:57:50.438Z,36.98
2018-10-19T09:00:22.355Z,36.98
2018-10-19T09:02:52.647Z,36.95
2018-10-19T09:05:23.079Z,36.50
2018-10-19T09:07:53.863Z,35.91
2018-10-19T09:10:23.589Z,35.85
2018-10-19T09:12:53.711Z,35.90
2018-10-19T09:15:24.828Z,35.92
2018-10-19T09:17:54.497Z,35.83
2018-10-19T09:20:24.636Z,35.40
2018-10-19T09:22:56.097Z,35.78
2018-10-19T09:25:25.783Z,34.90
2018-10-19T09:27:55.876Z,35.13
2018-10-19T09:30:26.468Z,34.63
2018-10-19T09:32:56.586Z,34.06
2018-10-19T09:35:28.039Z,35.46
2018-10-19T09:37:58.594Z,32.96
2018-10-19T09:40:29.494Z,34.85
2018-10-19T09:42:59.755Z,35.58
2018-10-19T09:45:30.119Z,35.03
2018-10-19T09:48:01.577Z,34.75
2018-10-19T09:50:31.997Z,34.64
2018-10-19T09:53:02.435Z,33.91
2018-10-19T09:55:39.899Z,33.81
2018-10-19T09:58:09.591Z,34.04
2018-10-19T10:00:46.257Z,32.84
2018-10-19T10:03:18.537Z,33.63
2018-10-19T10:05:53.170Z,33.03
2018-10-19T10:08:26.408Z,33.63
2018-10-19T10:10:57.302Z,33.71
2018-10-19T10:13:29.240Z,33.83
2018-10-19T10:16:00.418Z,33.57
2018-10-19T10:18:31.883Z,33.83
2018-10-19T10:21:07.679Z,33.32
2018-10-19T10:23:41.582Z,32.99
2018-10-19T10:26:12.512Z,32.10
2018-10-19T10:28:42.385Z,32.84
2018-10-19T10:31:11.910Z,33.54
2018-10-19T10:33:42.536Z,33.09
2018-10-19T10:36:13.155Z,33.10
2018-10-19T10:38:44.305Z,33.35
2018-10-19T10:41:16.679Z,34.23
2018-10-19T10:43:49.910Z,33.97
2018-10-19T10:46:22.707Z,32.88
2018-10-19T10:49:00.468Z,30.92
2018-10-19T10:51:31.082Z,32.28
2018-10-19T10:54:01.677Z,32.48
2018-10-19T10:56:35.200Z,32.22
2018-10-19T10:59:07.244Z,31.88
2018-10-19T11:01:37.873Z,32.64
2018-10-19T11:04:08.620Z,32.63
2018-10-19T11:06:39.076Z,32.09
2018-10-19T11:09:11.481Z,32.87
2018-10-19T11:11:43.320Z,31.93
2018-10-19T11:14:13.673Z,31.67
2018-10-19T11:16:44.186Z,32.15
2018-10-19T11:19:14.896Z,31.69
2018-10-19T11:21:44.422Z,31.69
2018-10-19T11:24:16.592Z,31.13
2018-10-19T11:26:47.656Z,31.56
2018-10-19T11:29:20.786Z,31.64
2018-10-19T11:31:57.674Z,30.37
2018-10-19T11:34:33.308Z,31.43
2018-10-19T11:37:10.679Z,31.97
2018-10-19T11:39:57.319Z,30.57
2018-10-19T11:42:33.094Z,31.56
2018-10-19T11:45:08.203Z,31.21
2018-10-19T11:47:48.534Z,31.83
2018-10-19T11:50:19.234Z,30.71
2018-10-19T11:52:52.338Z,31.11
2018-10-19T11:55:28.089Z,30.74
2018-10-19T11:58:05.515Z,31.36
2018-10-19T12:00:42.090Z,31.67
2018-10-19T12:03:14.618Z,31.80
2018-10-19T12:05:44.823Z,30.27
2018-10-19T12:08:14.656Z,30.41
2018-10-19T12:10:46.275Z,31.35
2018-10-19T12:13:16.184Z,30.89
2018-10-19T12:15:46.880Z,31.02
2018-10-19T12:18:18.197Z,30.93
2018-10-19T12:20:48.827Z,32.34
2018-10-19T12:23:21.333Z,32.68
2018-10-19T12:25:55.604Z,32.22
2018-10-19T12:28:28.637Z,32.33
2018-10-19T12:30:59.445Z,32.09
2018-10-19T12:33:29.033Z,31.53
2018-10-19T12:36:00.202Z,31.41
2018-10-19T12:38:31.045Z,30.12
2018-10-19T12:41:03.354Z,30.19
2018-10-19T12:43:33.417Z,30.31
2018-10-19T12:46:31.707Z,30.57
2018-10-19T12:49:04.152Z,30.42
2018-10-19T12:51:34.355Z,30.83
2018-10-19T12:54:04.159Z,30.25
2018-10-19T12:56:35.614Z,30.43
2018-10-19T12:59:05.488Z,30.39
2018-10-19T13:01:35.340Z,30.81
2018-10-19T13:04:06.014Z,30.26
2018-10-19T13:06:35.813Z,30.77
2018-10-19T13:09:08.843Z,30.29
2018-10-19T13:11:40.481Z,30.30
2018-10-19T13:14:11.603Z,30.92
2018-10-19T13:16:41.275Z,30.69
2018-10-19T13:19:11.827Z,30.65
2018-10-19T13:21:41.653Z,31.34
2018-10-19T13:24:12.379Z,31.04
2018-10-19T13:26:44.728Z,30.81
2018-10-19T13:29:14.510Z,30.68
2018-10-19T13:31:46.688Z,30.38
2018-10-19T13:34:16.548Z,31.19
2018-10-19T13:36:47.259Z,30.52
2018-10-19T13:39:17.655Z,30.26
2018-10-19T13:41:47.469Z,29.94
2018-10-19T13:44:17.125Z,30.41
2018-10-19T13:46:47.676Z,30.29
2018-10-19T13:49:18.755Z,31.02
2018-10-19T13:51:49.490Z,31.39
2018-10-19T13:54:20.122Z,30.18
2018-10-19T13:56:53.066Z,30.47
2018-10-19T13:59:24.701Z,30.23
2018-10-19T14:01:55.757Z,30.49
2018-10-19T14:04:27.172Z,30.45
2018-10-19T14:06:57.666Z,30.99
2018-10-19T14:09:27.312Z,31.07
2018-10-19T14:12:01.671Z,31.99
2018-10-19T14:14:32.199Z,31.46
2018-10-19T14:17:02.135Z,31.39
2018-10-19T14:19:32.854Z,31.11
2018-10-19T14:22:02.521Z,30.96
2018-10-19T14:24:32.519Z,31.50
2018-10-19T14:27:04.825Z,31.46
2018-10-19T14:29:35.509Z,31.63
2018-10-19T14:32:07.443Z,31.47
2018-10-19T14:34:36.896Z,30.76
2018-10-19T14:37:07.993Z,31.12
2018-10-19T14:39:37.633Z,31.13
2018-10-19T14:42:11.128Z,30.85
2018-10-19T14:44:42.407Z,30.14
2018-10-19T14:47:12.223Z,30.89
2018-10-19T14:49:43.849Z,30.31
2018-10-19T14:52:14.651Z,30.74
2018-10-19T14:54:44.354Z,31.09
2018-10-19T14:57:14.942Z,31.06
2018-10-19T14:59:45.729Z,30.54
2018-10-19T15:02:16.494Z,30.53
2018-10-19T15:04:47.921Z,31.58
2018-10-19T15:07:20.310Z,30.72
2018-10-19T15:09:51.092Z,31.29
2018-10-19T15:12:21.003Z,31.42
2018-10-19T15:14:51.125Z,31.14
2018-10-19T15:17:20.847Z,31.54
2018-10-19T15:19:50.937Z,32.07
2018-10-19T15:22:22.256Z,31.77
2018-10-19T15:24:52.097Z,32.16
2018-10-19T15:27:21.736Z,31.79
2018-10-19T15:29:51.751Z,32.46
2018-10-19T15:32:23.603Z,33.13
2018-10-19T15:34:56.426Z,33.23
2018-10-19T15:37:28.234Z,32.66
2018-10-19T15:40:01.880Z,33.39
2018-10-19T15:42:35.569Z,34.09
2018-10-19T15:45:08.612Z,33.87
2018-10-19T15:47:41.801Z,34.22
2018-10-19T15:50:13.442Z,34.45
2018-10-19T15:52:43.170Z,34.41
2018-10-19T15:55:13.781Z,35.50
2018-10-19T15:57:44.094Z,35.12
2018-10-19T16:00:19.443Z,35.58
2018-10-19T16:02:50.116Z,36.30
2018-10-19T16:05:21.881Z,36.15
2018-10-19T16:07:52.682Z,36.20
2018-10-19T16:10:23.497Z,36.19
2018-10-19T16:12:54.416Z,36.45
2018-10-19T16:15:29.511Z,36.60
2018-10-19T16:18:00.336Z,37.40
2018-10-19T16:20:32.376Z,37.20
2018-10-19T16:23:02.098Z,38.18
2018-10-19T16:25:32.815Z,37.62
2018-10-19T16:28:02.799Z,38.21
2018-10-19T16:30:32.461Z,38.47
2018-10-19T16:33:02.405Z,38.62
2018-10-19T16:35:32.541Z,38.82
2018-10-19T16:38:04.351Z,38.45
2018-10-19T16:40:34.143Z,38.64
2018-10-19T16:43:11.407Z,38.75
2018-10-19T16:45:42.387Z,39.49
2018-10-19T16:48:12.675Z,39.28
2018-10-19T16:50:42.332Z,39.41
2018-10-19T16:53:13.453Z,39.42
2018-10-19T16:55:44.824Z,39.17
2018-10-19T16:58:14.637Z,39.64
2018-10-19T17:00:48.834Z,40.21
2018-10-19T17:03:19.038Z,40.04
2018-10-19T17:05:48.898Z,39.34
2018-10-19T17:08:19.226Z,39.85
2018-10-19T17:10:51.718Z,40.25
2018-10-19T17:13:21.275Z,40.63
2018-10-19T17:15:51.800Z,40.31
2018-10-19T17:18:21.947Z,40.14
2018-10-19T17:20:55.727Z,41.22
2018-10-19T17:23:30.152Z,40.81
2018-10-19T17:26:00.082Z,40.66
2018-10-19T17:28:31.347Z,41.89
2018-10-19T17:31:00.971Z,41.52
2018-10-19T17:33:34.503Z,41.63
2018-10-19T17:36:04.338Z,41.81
2018-10-19T17:38:35.189Z,42.05
2018-10-19T17:41:06.456Z,42.63
2018-10-19T17:43:36.761Z,41.64
2018-10-19T17:46:09.320Z,42.77
2018-10-19T17:48:41.679Z,42.08
2018-10-19T17:51:11.332Z,42.04
2018-10-19T17:53:45.472Z,42.76
2018-10-19T17:56:17.585Z,42.83
2018-10-19T17:58:47.918Z,42.85
2018-10-19T18:01:20.630Z,42.57
2018-10-19T18:03:55.231Z,42.06
2018-10-19T18:09:01.709Z,42.70
2018-10-19T18:11:32.011Z,43.41
2018-10-19T18:14:06.753Z,43.64
2018-10-19T18:16:37.679Z,43.06
2018-10-19T18:19:08.081Z,43.17
2018-10-19T18:21:37.722Z,43.27
2018-10-19T18:24:09.217Z,42.99
2018-10-19T18:26:39.208Z,42.54
2018-10-19T18:29:09.412Z,42.99
2018-10-19T18:31:41.363Z,42.75
2018-10-19T18:34:12.591Z,42.49
2018-10-19T18:36:44.891Z,42.54
2018-10-19T18:39:15.308Z,42.02
2018-10-19T18:41:46.299Z,42.50
2018-10-19T18:44:17.219Z,41.82
2018-10-19T18:46:46.933Z,41.84
2018-10-19T18:49:17.302Z,41.56
2018-10-19T18:55:22.552Z,41.92
2018-10-19T18:57:52.277Z,41.61
2018-10-19T19:00:34.329Z,41.58
2018-10-19T19:03:05.139Z,41.06
2018-10-19T19:05:37.193Z,40.56
2018-10-19T19:08:07.660Z,41.15
2018-10-19T19:10:39.167Z,41.22
2018-10-19T19:13:14.264Z,40.52
2018-10-19T19:15:48.482Z,41.05
2018-10-19T19:18:18.057Z,40.96
2018-10-19T19:20:49.733Z,40.99
2018-10-19T19:23:22.357Z,40.60
2018-10-19T19:26:00.272Z,40.50
2018-10-19T19:28:31.213Z,41.08
2018-10-19T19:31:03.275Z,40.70
2018-10-19T19:33:40.160Z,40.77
2018-10-19T19:36:11.162Z,40.17
2018-10-19T19:38:42.271Z,40.24
2018-10-19T19:41:17.979Z,40.59
2018-10-19T19:43:49.345Z,40.47
2018-10-19T19:46:22.345Z,40.18
2018-10-19T19:48:58.367Z,40.44
2018-10-19T19:51:30.540Z,39.99
2018-10-19T19:54:03.360Z,39.84
2018-10-19T19:56:40.419Z,40.74
2018-10-19T19:59:11.830Z,40.34
2018-10-19T20:01:41.631Z,40.26
2018-10-19T20:04:12.455Z,41.01
2018-10-19T20:06:43.616Z,40.89
2018-10-19T20:09:13.260Z,40.53
2018-10-19T20:11:46.539Z,40.93
2018-10-19T20:14:16.538Z,41.34
2018-10-19T20:16:48.201Z,41.18
2018-10-19T20:19:18.492Z,40.90
2018-10-19T20:21:49.145Z,41.05
2018-10-19T20:24:20.137Z,41.32
2018-10-19T20:26:50.455Z,40.80
2018-10-19T20:29:25.118Z,41.79
2018-10-19T20:31:54.856Z,41.37
2018-10-19T20:34:26.605Z,41.34
2018-10-19T20:36:57.555Z,41.32
2018-10-19T20:39:29.736Z,40.91
2018-10-19T20:42:00.742Z,41.31
2018-10-19T20:44:32.771Z,41.85
2018-10-19T20:47:09.918Z,41.08
2018-10-19T20:49:42.556Z,41.56
2018-10-19T20:52:13.959Z,40.94
2018-10-19T20:54:44.469Z,41.70
2018-10-19T20:57:14.446Z,41.54
2018-10-19T20:59:44.099Z,40.97
2018-10-19T21:02:15.092Z,41.05
2018-10-19T21:04:45.245Z,41.67
2018-10-19T21:07:15.969Z,41.46
2018-10-19T21:09:46.582Z,41.86
2018-10-19T21:12:17.511Z,41.41
2018-10-19T21:14:51.411Z,42.26
2018-10-19T21:17:21.990Z,42.14
2018-10-19T21:19:53.153Z,41.92
2018-10-19T21:22:24.103Z,42.59
2018-10-19T21:24:54.085Z,42.96
2018-10-19T21:27:26.239Z,42.75
2018-10-19T21:29:55.927Z,41.98
2018-10-19T21:32:26.162Z,41.91
2018-10-19T21:34:56.619Z,41.63
2018-10-19T21:37:32.585Z,40.76
2018-10-19T21:40:02.231Z,41.59
2018-10-19T21:42:35.226Z,41.31
2018-10-19T21:45:06.882Z,41.35
2018-10-19T21:47:38.576Z,41.96
2018-10-19T21:50:22.318Z,42.24
2018-10-19T21:52:56.788Z,41.97
2018-10-19T21:55:28.820Z,42.41
2018-10-19T21:58:01.571Z,42.18
2018-10-19T22:00:33.045Z,42.48
2018-10-19T22:03:03.767Z,42.32
2018-10-19T22:05:37.482Z,41.45
2018-10-19T22:08:08.641Z,41.31
2018-10-19T22:10:39.098Z,41.32
2018-10-19T22:13:23.600Z,41.07
2018-10-19T22:15:53.253Z,40.87
2018-10-19T22:18:24.894Z,41.37
2018-10-19T22:20:55.935Z,41.13
2018-10-19T22:23:25.757Z,41.25
2018-10-19T22:25:56.479Z,41.10
2018-10-19T22:28:26.600Z,41.45
2018-10-19T22:30:58.435Z,42.17
2018-10-19T22:33:28.901Z,41.93
2018-10-19T22:35:58.877Z,41.87
2018-10-19T22:38:30.331Z,41.98
2018-10-19T22:41:00.642Z,41.50
2018-10-19T22:43:30.506Z,42.13
2018-10-19T22:46:00.057Z,41.73
2018-10-19T22:48:30.780Z,41.69
2018-10-19T22:51:00.813Z,41.61
2018-10-19T22:53:31.225Z,41.66
2018-10-19T22:56:00.839Z,41.80
2018-10-19T22:58:31.204Z,42.52
2018-10-19T23:01:02.478Z,42.15
2018-10-19T23:03:32.351Z,42.91
2018-10-19T23:06:03.198Z,41.95
2018-10-19T23:08:33.311Z,42.37
2018-10-19T23:11:04.582Z,42.11
2018-10-19T23:13:35.696Z,43.02
2018-10-19T23:16:06.206Z,42.57
2018-10-19T23:18:37.236Z,43.00
2018-10-19T23:21:07.189Z,42.60
2018-10-19T23:23:38.247Z,43.12
2018-10-19T23:26:08.295Z,43.21
2018-10-19T23:28:38.741Z,42.53
2018-10-19T23:31:08.388Z,41.94
2018-10-19T23:33:38.129Z,41.59
2018-10-19T23:36:07.884Z,41.74
2018-10-19T23:38:38.112Z,42.01
2018-10-19T23:41:08.506Z,41.41
2018-10-19T23:43:38.750Z,42.17
2018-10-19T23:46:08.631Z,41.54
2018-10-19T23:48:39.049Z,41.66
2018-10-19T23:51:09.234Z,41.63
2018-10-19T23:53:39.547Z,41.79
2018-10-19T23:56:09.112Z,42.04
2018-10-19T23:58:39.398Z,42.35
